createdAt,value
2022-12-29T07:06:29.325Z,96261.16
2022-12-29T07:08:27.575Z,96254.34
2022-12-29T07:10:26.144Z,96259.03
2022-12-29T07:12:24.438Z,96256.97
2022-12-29T07:14:22.567Z,96252.31
2022-12-29T07:16:21.328Z,96256.16
2022-12-29T07:18:19.594Z,96252.06
2022-12-29T07:20:23.220Z,96251.53
2022-12-29T07:22:26.126Z,96244.81
2022-12-29T07:24:26.608Z,96253.78
2022-12-29T07:26:25.374Z,96256.09
2022-12-29T07:28:23.519Z,96249.94
2022-12-29T07:30:21.634Z,96258.09
2022-12-29T07:32:21.025Z,96257.66
2022-12-29T07:34:19.331Z,96247.63
2022-12-29T07:36:18.249Z,96256.22
2022-12-29T07:38:17.665Z,96247.03
2022-12-29T07:40:16.233Z,96249.25
2022-12-29T07:42:14.389Z,96242.22
2022-12-29T07:44:15.059Z,96253.41
2022-12-29T07:46:55.133Z,96247.91
2022-12-29T07:48:45.684Z,96250.50
2022-12-29T07:50:43.830Z,96251.94
2022-12-29T07:52:42.070Z,96254.56
2022-12-29T07:54:41.583Z,96248.47
2022-12-29T07:56:39.789Z,96246.47
2022-12-29T07:58:38.040Z,96250.59
2022-12-29T08:00:36.250Z,96255.31
2022-12-29T08:02:35.061Z,96261.69
2022-12-29T08:04:33.427Z,96262.97
2022-12-29T08:06:31.939Z,96264.34
2022-12-29T08:08:30.187Z,96263.94
2022-12-29T08:10:29.741Z,96263.88
2022-12-29T08:12:33.348Z,96264.94
2022-12-29T08:14:31.542Z,96262.00
2022-12-29T08:16:29.795Z,96260.22
2022-12-29T08:18:28.107Z,96252.94
2022-12-29T08:20:26.453Z,96249.13
2022-12-29T08:22:25.298Z,96253.97
2022-12-29T08:24:23.765Z,96256.75
2022-12-29T08:26:23.890Z,96256.22
2022-12-29T08:28:22.315Z,96250.47
2022-12-29T08:30:20.465Z,96243.66
2022-12-29T08:32:19.279Z,96248.34
2022-12-29T08:34:17.405Z,96248.25
2022-12-29T08:36:15.660Z,96243.47
2022-12-29T08:38:14.397Z,96245.97
2022-12-29T08:40:13.140Z,96250.66
2022-12-29T08:42:12.770Z,96252.06
2022-12-29T08:44:14.304Z,96257.41
2022-12-29T08:46:12.500Z,96254.47
2022-12-29T08:48:10.924Z,96258.31
2022-12-29T08:50:09.667Z,96244.34
2022-12-29T08:52:07.970Z,96242.00
2022-12-29T08:54:06.218Z,96240.09
2022-12-29T08:56:05.846Z,96243.56
2022-12-29T08:58:17.465Z,96237.53
2022-12-29T09:00:17.245Z,96226.84
2022-12-29T09:02:20.452Z,96231.91
2022-12-29T09:04:22.290Z,96219.69
2022-12-29T09:06:20.666Z,96223.09
2022-12-29T09:08:23.940Z,96209.75
2022-12-29T09:10:24.535Z,96210.94
2022-12-29T09:12:22.716Z,96211.06
2022-12-29T09:14:24.001Z,96213.25
2022-12-29T09:16:24.643Z,96207.13
2022-12-29T09:18:21.924Z,96207.44
2022-12-29T09:20:21.654Z,96208.44
2022-12-29T09:22:19.866Z,96202.91
2022-12-29T09:24:18.034Z,96204.31
2022-12-29T09:26:16.275Z,96206.63
2022-12-29T09:28:14.431Z,96208.22
2022-12-29T09:30:15.770Z,96202.06
2022-12-29T09:32:18.355Z,96196.31
2022-12-29T09:34:17.750Z,96201.69
2022-12-29T09:36:15.884Z,96191.88
2022-12-29T09:38:14.204Z,96186.47
2022-12-29T09:40:26.416Z,96187.75
2022-12-29T09:42:29.637Z,96186.41
2022-12-29T09:44:41.394Z,96182.28
2022-12-29T09:46:45.786Z,96176.31
2022-12-29T09:48:49.918Z,96178.97
2022-12-29T09:50:54.136Z,96177.44
2022-12-29T09:52:59.719Z,96165.72
2022-12-29T09:55:05.295Z,96171.50
2022-12-29T09:57:12.911Z,96161.03
2022-12-29T09:59:17.896Z,96150.84
2022-12-29T10:01:27.385Z,96165.56
2022-12-29T10:03:34.478Z,96153.16
2022-12-29T10:05:41.657Z,96158.44
2022-12-29T10:07:47.673Z,96161.31
2022-12-29T10:09:56.068Z,96161.16
2022-12-29T10:12:08.791Z,96152.69
2022-12-29T10:14:31.315Z,96153.06
2022-12-29T10:16:35.877Z,96147.47
2022-12-29T10:18:57.982Z,96157.41
2022-12-29T10:21:01.466Z,96152.59
2022-12-29T10:23:13.610Z,96146.72
2022-12-29T10:25:17.339Z,96149.00
2022-12-29T10:27:17.961Z,96141.75
2022-12-29T10:29:21.015Z,96139.59
2022-12-29T10:31:24.354Z,96139.56
2022-12-29T10:33:25.357Z,96141.41
2022-12-29T10:35:27.393Z,96140.66
2022-12-29T10:37:35.098Z,96131.25
2022-12-29T10:39:41.918Z,96129.25
2022-12-29T10:41:46.215Z,96139.78
2022-12-29T10:43:49.023Z,96134.03
2022-12-29T10:45:48.042Z,96131.59
2022-12-29T10:47:55.938Z,96125.50
2022-12-29T10:49:55.067Z,96116.03
2022-12-29T10:51:59.051Z,96110.13
2022-12-29T10:54:04.425Z,96111.22
2022-12-29T10:56:04.225Z,96098.78
2022-12-29T10:58:05.894Z,96109.25
2022-12-29T11:00:11.224Z,96096.53
2022-12-29T11:02:33.895Z,96094.56
2022-12-29T11:04:45.510Z,96087.69
2022-12-29T11:06:45.373Z,96083.13
2022-12-29T11:08:53.145Z,96080.25
2022-12-29T11:11:01.367Z,96080.78
2022-12-29T11:13:00.902Z,96088.03
2022-12-29T11:15:15.280Z,96078.91
2022-12-29T11:17:18.365Z,96085.50
2022-12-29T11:19:24.376Z,96076.78
2022-12-29T11:21:33.891Z,96074.63
2022-12-29T11:23:34.930Z,96075.09
2022-12-29T11:25:34.674Z,96072.50
2022-12-29T11:27:33.938Z,96086.78
2022-12-29T11:29:40.417Z,96077.81
2022-12-29T11:31:43.224Z,96081.34
2022-12-29T11:33:41.561Z,96083.06
2022-12-29T11:35:43.312Z,96082.53
2022-12-29T11:37:43.628Z,96075.66
2022-12-29T11:39:53.890Z,96076.16
2022-12-29T11:41:56.103Z,96072.47
2022-12-29T11:43:57.832Z,96070.06
2022-12-29T11:45:57.516Z,96077.81
2022-12-29T11:47:59.439Z,96068.22
2022-12-29T11:50:00.968Z,96072.81
2022-12-29T11:51:59.271Z,96076.56
2022-12-29T11:54:00.497Z,96062.25
2022-12-29T11:56:02.977Z,96065.56
2022-12-29T11:58:06.551Z,96063.06
2022-12-29T12:00:16.507Z,96059.22
2022-12-29T12:02:43.032Z,96066.81
2022-12-29T12:04:42.175Z,96069.25
2022-12-29T12:06:47.262Z,96062.59
2022-12-29T12:08:51.071Z,96065.66
2022-12-29T12:10:55.485Z,96064.47
2022-12-29T12:12:55.926Z,96060.66
2022-12-29T12:15:00.405Z,96046.94
2022-12-29T12:17:16.469Z,96051.84
2022-12-29T12:19:22.645Z,96057.53
2022-12-29T12:21:31.514Z,96052.63
2022-12-29T12:23:38.809Z,96050.22
2022-12-29T12:25:43.789Z,96037.88
2022-12-29T12:27:50.949Z,96046.66
2022-12-29T12:29:54.889Z,96049.09
2022-12-29T12:31:59.818Z,96047.78
2022-12-29T12:34:03.225Z,96045.81
2022-12-29T12:36:22.523Z,96037.72
2022-12-29T12:38:29.904Z,96044.56
2022-12-29T12:40:59.845Z,96044.16
2022-12-29T12:43:15.630Z,96046.44
2022-12-29T12:45:36.281Z,96038.16
2022-12-29T12:47:50.241Z,96041.31
2022-12-29T12:50:24.788Z,96036.69
2022-12-29T12:52:33.471Z,96035.81
2022-12-29T12:54:47.214Z,96028.97
2022-12-29T12:56:53.550Z,96038.47
2022-12-29T12:59:00.889Z,96033.09
2022-12-29T13:01:14.493Z,96037.41
2022-12-29T13:03:19.645Z,96037.44
2022-12-29T13:05:39.541Z,96035.63
2022-12-29T13:07:51.083Z,96039.41
2022-12-29T13:10:02.666Z,96040.31
2022-12-29T13:12:13.769Z,96042.41
2022-12-29T13:14:29.653Z,96040.63
2022-12-29T13:16:36.140Z,96038.09
2022-12-29T13:18:47.273Z,96036.97
2022-12-29T13:20:51.603Z,96042.31
2022-12-29T13:22:58.667Z,96036.97
2022-12-29T13:25:29.626Z,96045.03
2022-12-29T13:27:38.116Z,96042.97
2022-12-29T13:29:43.054Z,96045.66
2022-12-29T13:31:50.385Z,96053.97
2022-12-29T13:33:55.775Z,96052.69
2022-12-29T13:36:03.350Z,96044.31
2022-12-29T13:38:11.564Z,96045.47
2022-12-29T13:40:16.824Z,96050.41
2022-12-29T13:42:18.980Z,96042.66
2022-12-29T13:44:22.809Z,96048.09
2022-12-29T13:46:25.983Z,96050.00
2022-12-29T13:48:29.216Z,96049.63
2022-12-29T13:50:31.842Z,96049.09
2022-12-29T13:52:39.532Z,96044.63
2022-12-29T13:54:42.615Z,96050.78
2022-12-29T13:56:44.530Z,96043.84
2022-12-29T13:58:50.545Z,96045.13
2022-12-29T14:00:56.248Z,96046.38
2022-12-29T14:03:21.067Z,96048.16
2022-12-29T14:05:34.597Z,96056.16
2022-12-29T14:07:39.768Z,96055.19
2022-12-29T14:09:47.468Z,96052.03
2022-12-29T14:11:45.598Z,96048.22
2022-12-29T14:13:46.838Z,96054.97
2022-12-29T14:15:46.896Z,96058.09
2022-12-29T14:17:46.178Z,96063.28
2022-12-29T14:19:46.524Z,96064.78
2022-12-29T14:21:53.726Z,96064.78
2022-12-29T14:23:54.998Z,96063.84
2022-12-29T14:26:02.159Z,96070.22
2022-12-29T14:28:00.374Z,96067.53
2022-12-29T14:29:58.553Z,96073.59
2022-12-29T14:31:57.202Z,96065.28
2022-12-29T14:34:29.923Z,96069.88
2022-12-29T14:36:36.253Z,96075.59
2022-12-29T14:38:46.912Z,96073.44
2022-12-29T14:40:45.702Z,96077.38
2022-12-29T14:42:44.488Z,96085.66
2022-12-29T14:44:50.902Z,96086.91
2022-12-29T14:46:59.978Z,96080.53
2022-12-29T14:49:02.156Z,96087.00
2022-12-29T14:51:00.878Z,96082.84
2022-12-29T14:53:04.124Z,96076.88
2022-12-29T14:55:38.977Z,96083.13
2022-12-29T14:57:41.183Z,96082.47
2022-12-29T14:59:40.022Z,96079.94
2022-12-29T15:01:45.293Z,96077.88
2022-12-29T15:03:51.268Z,96071.91
2022-12-29T15:05:53.440Z,96069.53
2022-12-29T15:08:07.518Z,96080.16
2022-12-29T15:10:14.754Z,96077.56
2022-12-29T15:12:22.419Z,96067.31
2022-12-29T15:14:37.349Z,96068.06
2022-12-29T15:16:39.227Z,96067.97
2022-12-29T15:18:40.488Z,96068.06
2022-12-29T15:20:41.543Z,96066.66
2022-12-29T15:22:44.036Z,96067.19
2022-12-29T15:24:44.651Z,96069.41
2022-12-29T15:26:48.782Z,96071.91
2022-12-29T15:28:48.412Z,96063.94
2022-12-29T15:30:55.042Z,96063.16
2022-12-29T15:32:54.159Z,96065.56
2022-12-29T15:34:54.549Z,96072.31
2022-12-29T15:36:53.606Z,96069.50
2022-12-29T15:38:52.501Z,96062.94
2022-12-29T15:40:55.668Z,96063.38
2022-12-29T15:43:09.763Z,96063.91
2022-12-29T15:45:12.794Z,96071.38
2022-12-29T15:47:18.793Z,96066.47
2022-12-29T15:49:18.276Z,96070.78
2022-12-29T15:51:22.586Z,96070.78
2022-12-29T15:53:25.852Z,96067.47
2022-12-29T15:55:30.706Z,96068.34
2022-12-29T15:57:33.341Z,96064.81
2022-12-29T15:59:35.135Z,96074.84
2022-12-29T16:01:35.360Z,96067.66
2022-12-29T16:03:36.639Z,96070.38
2022-12-29T16:05:36.700Z,96074.00
2022-12-29T16:07:41.536Z,96075.31
2022-12-29T16:09:46.533Z,96072.81
2022-12-29T16:11:47.506Z,96067.84
2022-12-29T16:13:46.596Z,96079.28
2022-12-29T16:15:49.510Z,96075.72
2022-12-29T16:17:51.747Z,96068.56
2022-12-29T16:19:52.656Z,96072.31
2022-12-29T16:21:50.984Z,96067.19
2022-12-29T16:23:54.673Z,96075.69
2022-12-29T16:25:55.675Z,96069.88
2022-12-29T16:27:54.484Z,96073.22
2022-12-29T16:29:56.359Z,96075.16
2022-12-29T16:32:01.861Z,96068.34
2022-12-29T16:34:00.368Z,96068.34
2022-12-29T16:35:58.715Z,96070.03
2022-12-29T16:38:15.114Z,96065.91
2022-12-29T16:40:28.201Z,96078.31
2022-12-29T16:42:37.372Z,96076.09
2022-12-29T16:44:35.628Z,96081.50
2022-12-29T16:46:34.133Z,96082.66
2022-12-29T16:48:36.870Z,96085.22
2022-12-29T16:50:36.415Z,96084.00
2022-12-29T16:52:36.717Z,96089.66
2022-12-29T16:54:37.517Z,96092.69
2022-12-29T16:56:38.388Z,96089.72
2022-12-29T16:58:36.798Z,96098.06
2022-12-29T17:00:38.133Z,96092.25
2022-12-29T17:02:45.624Z,96093.44
2022-12-29T17:04:49.427Z,96102.50
2022-12-29T17:06:47.867Z,96108.66
2022-12-29T17:08:47.408Z,96104.34
2022-12-29T17:11:02.804Z,96103.66
2022-12-29T17:13:01.054Z,96107.47
2022-12-29T17:15:00.634Z,96108.69
2022-12-29T17:17:01.191Z,96101.19
2022-12-29T17:18:59.464Z,96098.66
2022-12-29T17:20:59.576Z,96088.81
2022-12-29T17:23:02.767Z,96091.59
2022-12-29T17:25:03.708Z,96095.78
2022-12-29T17:27:02.312Z,96091.09
2022-12-29T17:29:00.483Z,96089.88
2022-12-29T17:31:02.580Z,96091.13
2022-12-29T17:33:05.792Z,96082.59
2022-12-29T17:35:04.166Z,96092.88
2022-12-29T17:37:04.323Z,96091.94
2022-12-29T17:39:02.475Z,96096.63
2022-12-29T17:41:01.093Z,96098.00
2022-12-29T17:43:00.926Z,96096.56
2022-12-29T17:44:59.228Z,96098.47
2022-12-29T17:46:57.582Z,96104.81
2022-12-29T17:48:55.836Z,96105.13
2022-12-29T17:50:55.451Z,96109.63
2022-12-29T17:53:00.959Z,96092.03
2022-12-29T17:55:01.182Z,96099.38
2022-12-29T17:56:59.567Z,96096.00
2022-12-29T17:58:57.861Z,96081.22
2022-12-29T18:00:58.451Z,96090.19
2022-12-29T18:02:57.019Z,96084.91
2022-12-29T18:04:55.663Z,96080.06
2022-12-29T18:06:54.093Z,96089.72
2022-12-29T18:08:53.685Z,96089.72
2022-12-29T18:10:53.712Z,96091.16
2022-12-29T18:12:54.458Z,96088.72
2022-12-29T18:14:52.674Z,96088.03
2022-12-29T18:16:51.094Z,96081.06
2022-12-29T18:18:49.413Z,96087.13
2022-12-29T18:20:49.337Z,96092.34
2022-12-29T18:22:47.703Z,96091.56
2022-12-29T18:24:47.128Z,96080.38
2022-12-29T18:26:45.371Z,96078.75
2022-12-29T18:28:44.762Z,96079.06
2022-12-29T18:30:42.987Z,96081.06
2022-12-29T18:32:41.252Z,96076.06
2022-12-29T18:34:39.595Z,96075.53
2022-12-29T18:36:37.770Z,96078.06
2022-12-29T18:38:36.023Z,96085.81
2022-12-29T18:40:37.136Z,96078.31
2022-12-29T18:42:35.209Z,96084.56
2022-12-29T18:44:33.807Z,96083.59
2022-12-29T18:46:32.071Z,96080.28
2022-12-29T18:48:30.274Z,96083.81
2022-12-29T18:50:28.903Z,96084.75
2022-12-29T18:52:27.183Z,96083.00
2022-12-29T18:54:30.121Z,96086.50
2022-12-29T18:56:29.976Z,96077.00
2022-12-29T18:58:33.919Z,96077.78
2022-12-29T19:00:32.400Z,96080.22
2022-12-29T19:02:32.648Z,96083.44
2022-12-29T19:04:30.959Z,96084.19
2022-12-29T19:06:29.122Z,96090.47
2022-12-29T19:08:27.485Z,96090.91
2022-12-29T19:10:26.685Z,96092.59
2022-12-29T19:12:28.517Z,96093.59
2022-12-29T19:14:26.984Z,96084.66
2022-12-29T19:16:26.955Z,96086.63
2022-12-29T19:18:44.590Z,96088.56
2022-12-29T19:20:44.949Z,96085.34
2022-12-29T19:22:43.021Z,96087.19
2022-12-29T19:24:41.274Z,96078.66
2022-12-29T19:26:40.750Z,96069.16
2022-12-29T19:28:40.291Z,96084.81
2022-12-29T19:30:38.485Z,96078.06
2022-12-29T19:32:36.844Z,96084.22
2022-12-29T19:34:35.088Z,96076.31
2022-12-29T19:36:33.671Z,96089.25
2022-12-29T19:38:31.941Z,96085.91
2022-12-29T19:40:30.552Z,96084.38
2022-12-29T19:42:28.881Z,96089.59
2022-12-29T19:44:29.087Z,96080.06
2022-12-29T19:46:27.511Z,96084.56
2022-12-29T19:48:25.641Z,96080.38
2022-12-29T19:50:23.973Z,96083.97
2022-12-29T19:52:22.178Z,96087.63
2022-12-29T19:54:20.262Z,96089.78
2022-12-29T19:56:18.708Z,96091.25
2022-12-29T19:58:16.888Z,96087.47
2022-12-29T20:00:17.580Z,96088.19
2022-12-29T20:02:20.480Z,96093.88
2022-12-29T20:04:18.646Z,96092.41
2022-12-29T20:06:17.635Z,96097.84
2022-12-29T20:08:15.971Z,96090.19
2022-12-29T20:10:14.405Z,96090.28
2022-12-29T20:12:13.475Z,96085.06
2022-12-29T20:14:11.758Z,96098.31
2022-12-29T20:16:14.981Z,96102.84
2022-12-29T20:18:14.777Z,96110.72
2022-12-29T20:20:14.216Z,96115.72
2022-12-29T20:22:12.894Z,96109.75
2022-12-29T20:24:11.139Z,96103.75
2022-12-29T20:26:10.305Z,96106.91
2022-12-29T20:28:08.555Z,96100.91
2022-12-29T20:30:10.744Z,96096.63
2022-12-29T20:32:11.261Z,96098.94
2022-12-29T20:34:10.221Z,96092.78
2022-12-29T20:36:10.387Z,96095.25
2022-12-29T20:38:08.584Z,96102.00
2022-12-29T20:40:13.120Z,96104.22
2022-12-29T20:42:11.537Z,96107.03
2022-12-29T20:44:09.886Z,96108.22
2022-12-29T20:46:08.347Z,96110.88
2022-12-29T20:48:08.063Z,96102.09
2022-12-29T20:50:07.636Z,96100.59
2022-12-29T20:52:07.290Z,96102.09
2022-12-29T20:54:05.999Z,96098.44
2022-12-29T20:56:06.845Z,96104.59
2022-12-29T21:00:23.845Z,96117.84
2022-12-29T21:02:25.754Z,96112.03
2022-12-29T21:04:25.467Z,96107.94
2022-12-29T21:06:23.651Z,96115.16
2022-12-29T21:08:22.488Z,96115.16
2022-12-29T21:10:20.797Z,96116.94
2022-12-29T21:12:19.122Z,96117.78
2022-12-29T21:14:17.349Z,96113.94
2022-12-29T21:16:18.894Z,96107.97
2022-12-29T21:18:17.294Z,96108.22
2022-12-29T21:20:20.689Z,96102.69
2022-12-29T21:22:19.190Z,96109.97
2022-12-29T21:24:19.853Z,96110.88
2022-12-29T21:26:20.756Z,96106.84
2022-12-29T21:28:19.024Z,96110.03
2022-12-29T21:30:17.368Z,96100.78
2022-12-29T21:32:15.714Z,96097.38
2022-12-29T21:34:14.069Z,96100.06
2022-12-29T21:36:16.248Z,96102.75
2022-12-29T21:38:15.055Z,96105.34
2022-12-29T21:40:13.863Z,96091.66
2022-12-29T21:42:12.095Z,96100.00
2022-12-29T21:44:27.597Z,96090.97
2022-12-29T21:46:25.712Z,96097.56
2022-12-29T21:48:24.295Z,96102.13
2022-12-29T21:50:22.893Z,96096.72
2022-12-29T21:52:21.482Z,96095.31
2022-12-29T21:54:38.505Z,96087.03
2022-12-29T21:56:36.648Z,96089.09
2022-12-29T21:58:53.024Z,96080.50
2022-12-29T22:01:13.126Z,96083.88
2022-12-29T22:03:29.584Z,96081.19
2022-12-29T22:05:45.154Z,96084.81
2022-12-29T22:08:02.563Z,96077.16
2022-12-29T22:10:18.692Z,96077.44
2022-12-29T22:12:35.127Z,96072.84
2022-12-29T22:14:35.799Z,96067.50
2022-12-29T22:16:35.159Z,96071.19
2022-12-29T22:18:33.566Z,96075.16
2022-12-29T22:20:34.636Z,96074.00
2022-12-29T22:22:32.979Z,96076.84
2022-12-29T22:24:33.595Z,96082.16
2022-12-29T22:26:31.725Z,96082.16
2022-12-29T22:28:30.043Z,96082.16
2022-12-29T22:30:29.115Z,96084.91
2022-12-29T22:32:28.733Z,96087.66
2022-12-29T22:34:28.640Z,96075.69
2022-12-29T22:36:28.079Z,96076.81
2022-12-29T22:38:26.499Z,96083.88
2022-12-29T22:40:32.375Z,96074.03
2022-12-29T22:42:32.613Z,96085.69
2022-12-29T22:44:33.807Z,96085.84
2022-12-29T22:46:35.233Z,96077.53
2022-12-29T22:48:33.654Z,96086.50
2022-12-29T22:50:31.978Z,96077.69
2022-12-29T22:52:30.261Z,96077.75
2022-12-29T22:54:28.894Z,96077.47
2022-12-29T22:56:28.525Z,96077.47
2022-12-29T22:58:29.146Z,96083.13
2022-12-29T23:00:27.487Z,96085.72
2022-12-29T23:02:25.943Z,96084.31
2022-12-29T23:05:01.775Z,96081.00
2022-12-29T23:06:42.899Z,96089.75
2022-12-29T23:08:41.368Z,96086.34
2022-12-29T23:10:39.795Z,96088.06
2022-12-29T23:12:39.481Z,96082.88
2022-12-29T23:14:37.672Z,96074.00
2022-12-29T23:16:36.063Z,96074.03
2022-12-29T23:18:34.344Z,96073.84
2022-12-29T23:20:32.482Z,96079.34
2022-12-29T23:22:30.878Z,96070.59
2022-12-29T23:24:28.995Z,96074.88
2022-12-29T23:26:30.518Z,96082.88
2022-12-29T23:28:30.199Z,96069.75
2022-12-29T23:30:28.280Z,96068.91
2022-12-29T23:32:26.630Z,96072.44
2022-12-29T23:34:24.805Z,96071.44
2022-12-29T23:36:23.332Z,96068.84
2022-12-29T23:38:21.581Z,96075.06
2022-12-29T23:40:19.705Z,96068.22
2022-12-29T23:42:17.976Z,96065.47
2022-12-29T23:44:17.509Z,96065.19
2022-12-29T23:46:20.206Z,96063.59
2022-12-29T23:48:18.555Z,96063.34
2022-12-29T23:50:16.823Z,96069.16
2022-12-29T23:52:15.099Z,96061.53
2022-12-29T23:54:13.367Z,96055.56
2022-12-29T23:56:15.180Z,96059.94
2022-12-29T23:58:13.437Z,96066.13
